sensor_id;sensor_type;location;lat;lon;timestamp;P1;durP1;ratioP1;P2;durP2;ratioP2
70312;SDS011;57723;51.698;5.344;2023-05-14T00:00:57;6.15;;;3.17;;
70312;SDS011;57723;51.698;5.344;2023-05-14T00:03:22;6.53;;;3.77;;
70312;SDS011;57723;51.698;5.344;2023-05-14T00:05:48;6.17;;;3.20;;
70312;SDS011;57723;51.698;5.344;2023-05-14T00:08:13;4.93;;;3.23;;
70312;SDS011;57723;51.698;5.344;2023-05-14T00:10:39;4.60;;;2.83;;
70312;SDS011;57723;51.698;5.344;2023-05-14T00:13:07;7.07;;;3.50;;
70312;SDS011;57723;51.698;5.344;2023-05-14T00:15:32;6.20;;;3.72;;
70312;SDS011;57723;51.698;5.344;2023-05-14T00:17:57;7.20;;;3.40;;
70312;SDS011;57723;51.698;5.344;2023-05-14T00:20:23;5.50;;;3.10;;
70312;SDS011;57723;51.698;5.344;2023-05-14T00:22:48;5.77;;;3.37;;
70312;SDS011;57723;51.698;5.344;2023-05-14T00:25:13;5.17;;;3.23;;
70312;SDS011;57723;51.698;5.344;2023-05-14T00:27:42;6.47;;;3.75;;
70312;SDS011;57723;51.698;5.344;2023-05-14T00:30:07;6.97;;;3.97;;
70312;SDS011;57723;51.698;5.344;2023-05-14T00:32:32;5.60;;;3.70;;
70312;SDS011;57723;51.698;5.344;2023-05-14T00:34:58;6.83;;;3.07;;
70312;SDS011;57723;51.698;5.344;2023-05-14T00:37:23;7.17;;;4.00;;
70312;SDS011;57723;51.698;5.344;2023-05-14T00:39:48;5.70;;;3.50;;
70312;SDS011;57723;51.698;5.344;2023-05-14T00:42:17;6.18;;;3.53;;
70312;SDS011;57723;51.698;5.344;2023-05-14T00:44:42;7.63;;;3.90;;
70312;SDS011;57723;51.698;5.344;2023-05-14T00:47:07;5.83;;;3.50;;
70312;SDS011;57723;51.698;5.344;2023-05-14T00:49:32;6.60;;;3.50;;
70312;SDS011;57723;51.698;5.344;2023-05-14T00:51:58;5.47;;;3.70;;
70312;SDS011;57723;51.698;5.344;2023-05-14T00:54:24;7.43;;;4.10;;
70312;SDS011;57723;51.698;5.344;2023-05-14T00:56:50;4.77;;;3.13;;
70312;SDS011;57723;51.698;5.344;2023-05-14T00:59:15;7.00;;;4.23;;
70312;SDS011;57723;51.698;5.344;2023-05-14T01:01:40;6.07;;;3.80;;
70312;SDS011;57723;51.698;5.344;2023-05-14T01:04:06;4.20;;;3.10;;
70312;SDS011;57723;51.698;5.344;2023-05-14T01:11:55;4.82;;;2.90;;
70312;SDS011;57723;51.698;5.344;2023-05-14T01:15:25;4.85;;;3.25;;
70312;SDS011;57723;51.698;5.344;2023-05-14T01:17:18;3.78;;;2.75;;
70312;SDS011;57723;51.698;5.344;2023-05-14T01:19:45;5.90;;;3.40;;
70312;SDS011;57723;51.698;5.344;2023-05-14T01:22:11;5.27;;;3.43;;
70312;SDS011;57723;51.698;5.344;2023-05-14T01:24:36;4.70;;;3.13;;
70312;SDS011;57723;51.698;5.344;2023-05-14T01:29:48;9.40;;;3.80;;
70312;SDS011;57723;51.698;5.344;2023-05-14T01:32:17;5.97;;;4.23;;
70312;SDS011;57723;51.698;5.344;2023-05-14T01:34:42;5.80;;;3.92;;
70312;SDS011;57723;51.698;5.344;2023-05-14T01:37:09;8.00;;;3.75;;
70312;SDS011;57723;51.698;5.344;2023-05-14T01:39:35;6.30;;;3.77;;
70312;SDS011;57723;51.698;5.344;2023-05-14T01:42:02;5.30;;;3.60;;
70312;SDS011;57723;51.698;5.344;2023-05-14T01:44:27;6.22;;;3.80;;
70312;SDS011;57723;51.698;5.344;2023-05-14T01:46:53;7.07;;;3.83;;
70312;SDS011;57723;51.698;5.344;2023-05-14T01:49:18;6.13;;;3.57;;
70312;SDS011;57723;51.698;5.344;2023-05-14T01:51:43;6.60;;;3.80;;
70312;SDS011;57723;51.698;5.344;2023-05-14T01:54:08;6.20;;;3.67;;
70312;SDS011;57723;51.698;5.344;2023-05-14T01:56:34;6.97;;;4.10;;
70312;SDS011;57723;51.698;5.344;2023-05-14T01:58:59;6.87;;;4.20;;
70312;SDS011;57723;51.698;5.344;2023-05-14T02:01:24;7.77;;;4.20;;
70312;SDS011;57723;51.698;5.344;2023-05-14T02:03:52;5.13;;;3.70;;
70312;SDS011;57723;51.698;5.344;2023-05-14T02:06:18;5.40;;;3.80;;
70312;SDS011;57723;51.698;5.344;2023-05-14T02:08:43;6.03;;;3.80;;
70312;SDS011;57723;51.698;5.344;2023-05-14T02:11:08;6.03;;;3.60;;
70312;SDS011;57723;51.698;5.344;2023-05-14T02:13:34;5.40;;;3.83;;
70312;SDS011;57723;51.698;5.344;2023-05-14T02:15:59;6.10;;;3.70;;
70312;SDS011;57723;51.698;5.344;2023-05-14T02:18:25;5.23;;;3.10;;
70312;SDS011;57723;51.698;5.344;2023-05-14T02:20:50;5.27;;;3.20;;
70312;SDS011;57723;51.698;5.344;2023-05-14T02:23:15;5.53;;;3.00;;
70312;SDS011;57723;51.698;5.344;2023-05-14T02:25:41;6.73;;;3.80;;
70312;SDS011;57723;51.698;5.344;2023-05-14T02:28:06;6.83;;;3.53;;
70312;SDS011;57723;51.698;5.344;2023-05-14T02:30:31;5.77;;;3.20;;
70312;SDS011;57723;51.698;5.344;2023-05-14T02:32:56;6.23;;;3.60;;
70312;SDS011;57723;51.698;5.344;2023-05-14T02:35:22;7.03;;;4.23;;
70312;SDS011;57723;51.698;5.344;2023-05-14T02:37:47;6.20;;;3.77;;
70312;SDS011;57723;51.698;5.344;2023-05-14T02:40:12;6.13;;;3.90;;
70312;SDS011;57723;51.698;5.344;2023-05-14T02:42:38;5.30;;;3.50;;
70312;SDS011;57723;51.698;5.344;2023-05-14T02:45:03;6.40;;;4.03;;
70312;SDS011;57723;51.698;5.344;2023-05-14T02:47:31;4.73;;;3.37;;
70312;SDS011;57723;51.698;5.344;2023-05-14T02:49:56;5.72;;;3.60;;
70312;SDS011;57723;51.698;5.344;2023-05-14T02:52:21;6.18;;;4.20;;
70312;SDS011;57723;51.698;5.344;2023-05-14T02:54:47;5.30;;;3.67;;
70312;SDS011;57723;51.698;5.344;2023-05-14T02:57:12;6.40;;;4.13;;
70312;SDS011;57723;51.698;5.344;2023-05-14T02:59:38;6.17;;;3.80;;
70312;SDS011;57723;51.698;5.344;2023-05-14T03:02:06;6.17;;;4.07;;
70312;SDS011;57723;51.698;5.344;2023-05-14T03:04:31;4.65;;;3.30;;
70312;SDS011;57723;51.698;5.344;2023-05-14T03:06:57;6.90;;;3.77;;
70312;SDS011;57723;51.698;5.344;2023-05-14T03:09:22;6.13;;;3.77;;
70312;SDS011;57723;51.698;5.344;2023-05-14T03:11:47;4.30;;;3.10;;
70312;SDS011;57723;51.698;5.344;2023-05-14T03:14:12;8.67;;;3.37;;
70312;SDS011;57723;51.698;5.344;2023-05-14T03:16:37;5.20;;;3.63;;
70312;SDS011;57723;51.698;5.344;2023-05-14T03:19:06;6.65;;;3.63;;
70312;SDS011;57723;51.698;5.344;2023-05-14T03:21:31;7.13;;;4.00;;
70312;SDS011;57723;51.698;5.344;2023-05-14T03:23:56;4.47;;;3.30;;
70312;SDS011;57723;51.698;5.344;2023-05-14T03:26:22;6.45;;;3.50;;
70312;SDS011;57723;51.698;5.344;2023-05-14T03:28:47;5.93;;;3.67;;
70312;SDS011;57723;51.698;5.344;2023-05-14T03:31:13;6.07;;;3.97;;
70312;SDS011;57723;51.698;5.344;2023-05-14T03:33:40;6.10;;;4.00;;
70312;SDS011;57723;51.698;5.344;2023-05-14T03:36:05;5.00;;;3.40;;
70312;SDS011;57723;51.698;5.344;2023-05-14T03:38:31;5.80;;;3.60;;
70312;SDS011;57723;51.698;5.344;2023-05-14T03:40:56;5.40;;;3.50;;
70312;SDS011;57723;51.698;5.344;2023-05-14T03:43:22;9.03;;;3.83;;
70312;SDS011;57723;51.698;5.344;2023-05-14T03:45:49;7.83;;;4.30;;
70312;SDS011;57723;51.698;5.344;2023-05-14T03:48:17;6.25;;;4.03;;
70312;SDS011;57723;51.698;5.344;2023-05-14T03:50:42;5.35;;;3.30;;
70312;SDS011;57723;51.698;5.344;2023-05-14T03:53:10;6.37;;;3.33;;
70312;SDS011;57723;51.698;5.344;2023-05-14T03:55:35;5.28;;;3.70;;
70312;SDS011;57723;51.698;5.344;2023-05-14T03:58:03;5.90;;;3.60;;
70312;SDS011;57723;51.698;5.344;2023-05-14T04:00:31;5.15;;;3.78;;
70312;SDS011;57723;51.698;5.344;2023-05-14T04:02:57;7.03;;;3.93;;
70312;SDS011;57723;51.698;5.344;2023-05-14T04:05:23;5.75;;;3.63;;
70312;SDS011;57723;51.698;5.344;2023-05-14T04:07:48;7.43;;;3.87;;
70312;SDS011;57723;51.698;5.344;2023-05-14T04:10:13;5.57;;;3.47;;
70312;SDS011;57723;51.698;5.344;2023-05-14T04:12:38;7.13;;;3.80;;
70312;SDS011;57723;51.698;5.344;2023-05-14T04:15:04;5.27;;;3.70;;
70312;SDS011;57723;51.698;5.344;2023-05-14T04:17:30;6.13;;;3.65;;
70312;SDS011;57723;51.698;5.344;2023-05-14T04:19:55;5.97;;;3.37;;
70312;SDS011;57723;51.698;5.344;2023-05-14T04:22:20;6.03;;;3.60;;
70312;SDS011;57723;51.698;5.344;2023-05-14T04:24:46;5.83;;;3.40;;
70312;SDS011;57723;51.698;5.344;2023-05-14T04:27:13;5.40;;;3.75;;
70312;SDS011;57723;51.698;5.344;2023-05-14T04:29:43;6.43;;;3.87;;
70312;SDS011;57723;51.698;5.344;2023-05-14T04:32:08;6.43;;;3.97;;
70312;SDS011;57723;51.698;5.344;2023-05-14T04:34:34;7.68;;;4.18;;
70312;SDS011;57723;51.698;5.344;2023-05-14T04:36:59;9.03;;;3.73;;
70312;SDS011;57723;51.698;5.344;2023-05-14T04:39:25;6.67;;;3.97;;
70312;SDS011;57723;51.698;5.344;2023-05-14T04:41:50;7.13;;;3.87;;
70312;SDS011;57723;51.698;5.344;2023-05-14T04:44:15;8.90;;;4.07;;
70312;SDS011;57723;51.698;5.344;2023-05-14T04:46:41;6.88;;;3.90;;
70312;SDS011;57723;51.698;5.344;2023-05-14T04:49:06;7.00;;;3.80;;
70312;SDS011;57723;51.698;5.344;2023-05-14T04:51:32;7.07;;;3.97;;
70312;SDS011;57723;51.698;5.344;2023-05-14T04:53:57;9.20;;;3.57;;
70312;SDS011;57723;51.698;5.344;2023-05-14T04:56:22;7.40;;;4.00;;
70312;SDS011;57723;51.698;5.344;2023-05-14T04:58:48;5.43;;;4.00;;
70312;SDS011;57723;51.698;5.344;2023-05-14T05:01:13;7.33;;;4.10;;
70312;SDS011;57723;51.698;5.344;2023-05-14T05:03:39;9.48;;;3.70;;
70312;SDS011;57723;51.698;5.344;2023-05-14T05:06:05;7.05;;;3.70;;
70312;SDS011;57723;51.698;5.344;2023-05-14T05:08:31;7.13;;;3.70;;
70312;SDS011;57723;51.698;5.344;2023-05-14T05:10:56;7.00;;;3.77;;
70312;SDS011;57723;51.698;5.344;2023-05-14T05:13:21;6.00;;;3.70;;
70312;SDS011;57723;51.698;5.344;2023-05-14T05:15:47;7.43;;;4.17;;
70312;SDS011;57723;51.698;5.344;2023-05-14T05:18:12;5.80;;;3.73;;
70312;SDS011;57723;51.698;5.344;2023-05-14T05:20:37;6.43;;;3.73;;
70312;SDS011;57723;51.698;5.344;2023-05-14T05:23:02;6.93;;;3.97;;
70312;SDS011;57723;51.698;5.344;2023-05-14T05:25:28;8.73;;;4.33;;
70312;SDS011;57723;51.698;5.344;2023-05-14T05:27:53;7.03;;;3.83;;
70312;SDS011;57723;51.698;5.344;2023-05-14T05:30:18;8.33;;;4.30;;
70312;SDS011;57723;51.698;5.344;2023-05-14T05:32:43;8.33;;;4.30;;
70312;SDS011;57723;51.698;5.344;2023-05-14T05:35:09;7.30;;;4.43;;
70312;SDS011;57723;51.698;5.344;2023-05-14T05:37:34;8.30;;;4.10;;
70312;SDS011;57723;51.698;5.344;2023-05-14T05:40:00;7.67;;;3.73;;
70312;SDS011;57723;51.698;5.344;2023-05-14T05:42:25;12.27;;;3.97;;
70312;SDS011;57723;51.698;5.344;2023-05-14T05:44:53;21.27;;;4.90;;
70312;SDS011;57723;51.698;5.344;2023-05-14T05:47:18;9.75;;;4.40;;
70312;SDS011;57723;51.698;5.344;2023-05-14T05:49:44;7.87;;;4.20;;
70312;SDS011;57723;51.698;5.344;2023-05-14T05:52:09;8.57;;;4.73;;
70312;SDS011;57723;51.698;5.344;2023-05-14T05:54:35;8.07;;;4.40;;
70312;SDS011;57723;51.698;5.344;2023-05-14T05:57:00;7.73;;;3.93;;
70312;SDS011;57723;51.698;5.344;2023-05-14T05:59:26;12.80;;;4.05;;
70312;SDS011;57723;51.698;5.344;2023-05-14T06:01:51;13.90;;;4.70;;
70312;SDS011;57723;51.698;5.344;2023-05-14T06:04:17;10.27;;;4.63;;
70312;SDS011;57723;51.698;5.344;2023-05-14T06:06:42;8.02;;;4.60;;
70312;SDS011;57723;51.698;5.344;2023-05-14T06:09:07;9.93;;;4.85;;
70312;SDS011;57723;51.698;5.344;2023-05-14T06:11:34;10.60;;;4.77;;
70312;SDS011;57723;51.698;5.344;2023-05-14T06:13:59;8.23;;;4.28;;
70312;SDS011;57723;51.698;5.344;2023-05-14T06:16:24;9.20;;;4.90;;
70312;SDS011;57723;51.698;5.344;2023-05-14T06:18:50;10.50;;;4.67;;
70312;SDS011;57723;51.698;5.344;2023-05-14T06:21:16;10.27;;;5.00;;
70312;SDS011;57723;51.698;5.344;2023-05-14T06:23:42;8.87;;;4.53;;
70312;SDS011;57723;51.698;5.344;2023-05-14T06:26:07;8.40;;;4.57;;
70312;SDS011;57723;51.698;5.344;2023-05-14T06:28:32;7.57;;;4.30;;
70312;SDS011;57723;51.698;5.344;2023-05-14T06:30:57;7.17;;;4.60;;
70312;SDS011;57723;51.698;5.344;2023-05-14T06:33:23;9.93;;;4.70;;
70312;SDS011;57723;51.698;5.344;2023-05-14T06:35:54;7.40;;;4.40;;
70312;SDS011;57723;51.698;5.344;2023-05-14T06:38:20;7.97;;;4.13;;
70312;SDS011;57723;51.698;5.344;2023-05-14T06:40:45;8.00;;;4.17;;
70312;SDS011;57723;51.698;5.344;2023-05-14T06:43:10;6.60;;;3.83;;
70312;SDS011;57723;51.698;5.344;2023-05-14T06:45:36;7.93;;;3.80;;
70312;SDS011;57723;51.698;5.344;2023-05-14T06:48:01;8.90;;;3.70;;
70312;SDS011;57723;51.698;5.344;2023-05-14T06:50:26;7.27;;;3.90;;
70312;SDS011;57723;51.698;5.344;2023-05-14T06:52:52;9.53;;;4.53;;
70312;SDS011;57723;51.698;5.344;2023-05-14T06:55:17;10.32;;;5.00;;
70312;SDS011;57723;51.698;5.344;2023-05-14T06:57:43;6.67;;;4.50;;
70312;SDS011;57723;51.698;5.344;2023-05-14T07:00:09;9.68;;;4.38;;
70312;SDS011;57723;51.698;5.344;2023-05-14T07:02:34;9.13;;;4.10;;
70312;SDS011;57723;51.698;5.344;2023-05-14T07:04:59;7.77;;;4.47;;
70312;SDS011;57723;51.698;5.344;2023-05-14T07:07:25;8.48;;;4.78;;
70312;SDS011;57723;51.698;5.344;2023-05-14T07:09:51;5.83;;;3.80;;
70312;SDS011;57723;51.698;5.344;2023-05-14T07:12:16;9.63;;;4.13;;
70312;SDS011;57723;51.698;5.344;2023-05-14T07:14:42;8.80;;;4.17;;
70312;SDS011;57723;51.698;5.344;2023-05-14T07:17:10;9.73;;;4.63;;
70312;SDS011;57723;51.698;5.344;2023-05-14T07:19:35;8.57;;;5.00;;
70312;SDS011;57723;51.698;5.344;2023-05-14T07:22:00;8.20;;;4.00;;
70312;SDS011;57723;51.698;5.344;2023-05-14T07:24:26;7.83;;;4.13;;
70312;SDS011;57723;51.698;5.344;2023-05-14T07:26:51;8.13;;;4.37;;
70312;SDS011;57723;51.698;5.344;2023-05-14T07:29:16;10.90;;;4.13;;
70312;SDS011;57723;51.698;5.344;2023-05-14T07:31:41;9.40;;;3.80;;
70312;SDS011;57723;51.698;5.344;2023-05-14T07:34:07;8.00;;;4.00;;
70312;SDS011;57723;51.698;5.344;2023-05-14T07:36:32;7.35;;;3.83;;
70312;SDS011;57723;51.698;5.344;2023-05-14T07:38:58;8.00;;;3.77;;
70312;SDS011;57723;51.698;5.344;2023-05-14T07:41:24;10.00;;;4.23;;
70312;SDS011;57723;51.698;5.344;2023-05-14T07:43:49;7.70;;;3.93;;
70312;SDS011;57723;51.698;5.344;2023-05-14T07:46:15;7.23;;;3.70;;
70312;SDS011;57723;51.698;5.344;2023-05-14T07:48:40;8.77;;;3.73;;
70312;SDS011;57723;51.698;5.344;2023-05-14T07:51:05;9.27;;;3.80;;
70312;SDS011;57723;51.698;5.344;2023-05-14T07:53:31;6.67;;;3.47;;
70312;SDS011;57723;51.698;5.344;2023-05-14T07:55:59;6.05;;;3.55;;
70312;SDS011;57723;51.698;5.344;2023-05-14T07:58:24;5.67;;;3.30;;
70312;SDS011;57723;51.698;5.344;2023-05-14T08:00:51;7.15;;;3.53;;
70312;SDS011;57723;51.698;5.344;2023-05-14T08:03:17;5.40;;;3.43;;
70312;SDS011;57723;51.698;5.344;2023-05-14T08:05:42;6.57;;;3.70;;
70312;SDS011;57723;51.698;5.344;2023-05-14T08:08:07;5.57;;;3.40;;
70312;SDS011;57723;51.698;5.344;2023-05-14T08:10:32;5.97;;;3.13;;
70312;SDS011;57723;51.698;5.344;2023-05-14T08:12:58;6.30;;;3.67;;
70312;SDS011;57723;51.698;5.344;2023-05-14T08:15:23;7.03;;;3.60;;
70312;SDS011;57723;51.698;5.344;2023-05-14T08:17:48;9.90;;;3.95;;
70312;SDS011;57723;51.698;5.344;2023-05-14T08:20:13;6.57;;;3.70;;
70312;SDS011;57723;51.698;5.344;2023-05-14T08:22:39;7.43;;;3.80;;
70312;SDS011;57723;51.698;5.344;2023-05-14T08:25:04;5.37;;;3.30;;
70312;SDS011;57723;51.698;5.344;2023-05-14T08:27:30;7.30;;;3.90;;
70312;SDS011;57723;51.698;5.344;2023-05-14T08:29:56;5.60;;;3.60;;
70312;SDS011;57723;51.698;5.344;2023-05-14T08:32:21;7.53;;;3.47;;
70312;SDS011;57723;51.698;5.344;2023-05-14T08:34:46;6.33;;;3.57;;
70312;SDS011;57723;51.698;5.344;2023-05-14T08:37:12;10.10;;;3.77;;
70312;SDS011;57723;51.698;5.344;2023-05-14T08:39:37;8.60;;;3.72;;
70312;SDS011;57723;51.698;5.344;2023-05-14T08:42:03;7.77;;;4.13;;
70312;SDS011;57723;51.698;5.344;2023-05-14T08:44:32;7.90;;;3.95;;
70312;SDS011;57723;51.698;5.344;2023-05-14T08:46:58;6.10;;;3.80;;
70312;SDS011;57723;51.698;5.344;2023-05-14T08:49:28;8.33;;;4.10;;
70312;SDS011;57723;51.698;5.344;2023-05-14T08:51:57;10.75;;;4.15;;
70312;SDS011;57723;51.698;5.344;2023-05-14T08:54:23;5.90;;;4.07;;
70312;SDS011;57723;51.698;5.344;2023-05-14T08:56:50;7.38;;;4.25;;
70312;SDS011;57723;51.698;5.344;2023-05-14T08:59:15;7.40;;;3.90;;
70312;SDS011;57723;51.698;5.344;2023-05-14T09:01:42;8.20;;;3.97;;
70312;SDS011;57723;51.698;5.344;2023-05-14T09:04:17;5.90;;;3.70;;
70312;SDS011;57723;51.698;5.344;2023-05-14T09:06:43;5.90;;;3.80;;
70312;SDS011;57723;51.698;5.344;2023-05-14T09:09:10;9.15;;;3.90;;
70312;SDS011;57723;51.698;5.344;2023-05-14T09:11:44;5.30;;;3.60;;
70312;SDS011;57723;51.698;5.344;2023-05-14T09:14:10;6.18;;;3.83;;
70312;SDS011;57723;51.698;5.344;2023-05-14T09:16:35;6.27;;;3.87;;
70312;SDS011;57723;51.698;5.344;2023-05-14T09:19:02;6.05;;;4.13;;
70312;SDS011;57723;51.698;5.344;2023-05-14T09:21:28;7.22;;;4.20;;
70312;SDS011;57723;51.698;5.344;2023-05-14T09:23:53;7.43;;;4.07;;
70312;SDS011;57723;51.698;5.344;2023-05-14T09:26:24;6.55;;;4.10;;
70312;SDS011;57723;51.698;5.344;2023-05-14T09:28:53;6.32;;;4.15;;
70312;SDS011;57723;51.698;5.344;2023-05-14T09:31:24;6.95;;;3.58;;
70312;SDS011;57723;51.698;5.344;2023-05-14T09:33:50;6.73;;;3.90;;
70312;SDS011;57723;51.698;5.344;2023-05-14T09:36:16;6.85;;;3.70;;
70312;SDS011;57723;51.698;5.344;2023-05-14T09:38:43;7.00;;;3.60;;
70312;SDS011;57723;51.698;5.344;2023-05-14T09:41:09;6.25;;;3.60;;
70312;SDS011;57723;51.698;5.344;2023-05-14T09:43:34;5.90;;;3.70;;
70312;SDS011;57723;51.698;5.344;2023-05-14T09:46:00;7.20;;;4.17;;
70312;SDS011;57723;51.698;5.344;2023-05-14T09:48:27;6.97;;;3.93;;
70312;SDS011;57723;51.698;5.344;2023-05-14T09:50:53;8.70;;;3.80;;
70312;SDS011;57723;51.698;5.344;2023-05-14T09:53:18;7.10;;;3.93;;
70312;SDS011;57723;51.698;5.344;2023-05-14T09:55:44;6.00;;;3.77;;
70312;SDS011;57723;51.698;5.344;2023-05-14T09:58:09;6.80;;;4.07;;
70312;SDS011;57723;51.698;5.344;2023-05-14T10:00:35;6.43;;;4.23;;
70312;SDS011;57723;51.698;5.344;2023-05-14T10:03:06;5.97;;;4.00;;
70312;SDS011;57723;51.698;5.344;2023-05-14T10:05:35;8.23;;;4.30;;
70312;SDS011;57723;51.698;5.344;2023-05-14T10:08:08;7.13;;;4.18;;
70312;SDS011;57723;51.698;5.344;2023-05-14T10:10:36;9.77;;;3.77;;
70312;SDS011;57723;51.698;5.344;2023-05-14T10:13:11;9.30;;;4.03;;
70312;SDS011;57723;51.698;5.344;2023-05-14T10:15:51;5.97;;;3.60;;
70312;SDS011;57723;51.698;5.344;2023-05-14T10:18:19;8.15;;;4.20;;
70312;SDS011;57723;51.698;5.344;2023-05-14T10:20:47;10.98;;;4.45;;
70312;SDS011;57723;51.698;5.344;2023-05-14T10:23:12;6.73;;;3.60;;
70312;SDS011;57723;51.698;5.344;2023-05-14T10:25:38;9.48;;;3.70;;
70312;SDS011;57723;51.698;5.344;2023-05-14T10:28:04;7.60;;;4.00;;
70312;SDS011;57723;51.698;5.344;2023-05-14T10:30:29;6.53;;;3.80;;
70312;SDS011;57723;51.698;5.344;2023-05-14T10:33:08;6.13;;;3.93;;
70312;SDS011;57723;51.698;5.344;2023-05-14T10:35:54;6.70;;;3.67;;
70312;SDS011;57723;51.698;5.344;2023-05-14T10:38:27;8.23;;;4.10;;
70312;SDS011;57723;51.698;5.344;2023-05-14T10:40:56;7.38;;;4.25;;
70312;SDS011;57723;51.698;5.344;2023-05-14T10:43:24;6.53;;;4.00;;
70312;SDS011;57723;51.698;5.344;2023-05-14T10:45:51;6.90;;;4.27;;
70312;SDS011;57723;51.698;5.344;2023-05-14T10:48:16;7.30;;;4.28;;
70312;SDS011;57723;51.698;5.344;2023-05-14T10:50:41;6.67;;;3.80;;
70312;SDS011;57723;51.698;5.344;2023-05-14T10:53:09;7.77;;;4.20;;
70312;SDS011;57723;51.698;5.344;2023-05-14T10:55:37;6.95;;;4.07;;
70312;SDS011;57723;51.698;5.344;2023-05-14T10:58:03;7.13;;;4.50;;
70312;SDS011;57723;51.698;5.344;2023-05-14T11:00:28;8.30;;;4.13;;
70312;SDS011;57723;51.698;5.344;2023-05-14T11:02:57;7.03;;;4.18;;
70312;SDS011;57723;51.698;5.344;2023-05-14T11:05:22;5.97;;;3.60;;
70312;SDS011;57723;51.698;5.344;2023-05-14T11:07:51;6.40;;;3.90;;
70312;SDS011;57723;51.698;5.344;2023-05-14T11:10:18;5.97;;;3.67;;
70312;SDS011;57723;51.698;5.344;2023-05-14T11:12:47;5.65;;;4.10;;
70312;SDS011;57723;51.698;5.344;2023-05-14T11:15:13;6.40;;;3.90;;
70312;SDS011;57723;51.698;5.344;2023-05-14T11:17:40;5.97;;;3.30;;
70312;SDS011;57723;51.698;5.344;2023-05-14T11:20:06;5.35;;;3.78;;
70312;SDS011;57723;51.698;5.344;2023-05-14T11:22:32;5.15;;;3.55;;
70312;SDS011;57723;51.698;5.344;2023-05-14T11:24:57;5.43;;;3.77;;
70312;SDS011;57723;51.698;5.344;2023-05-14T11:27:23;6.30;;;3.50;;
70312;SDS011;57723;51.698;5.344;2023-05-14T11:29:48;6.63;;;3.50;;
70312;SDS011;57723;51.698;5.344;2023-05-14T11:32:14;6.17;;;3.50;;
70312;SDS011;57723;51.698;5.344;2023-05-14T11:34:40;6.47;;;3.58;;
70312;SDS011;57723;51.698;5.344;2023-05-14T11:37:06;5.53;;;3.80;;
70312;SDS011;57723;51.698;5.344;2023-05-14T11:39:32;6.77;;;3.60;;
70312;SDS011;57723;51.698;5.344;2023-05-14T11:41:58;5.63;;;3.40;;
70312;SDS011;57723;51.698;5.344;2023-05-14T11:44:24;7.63;;;3.73;;
70312;SDS011;57723;51.698;5.344;2023-05-14T11:46:56;4.80;;;3.20;;
70312;SDS011;57723;51.698;5.344;2023-05-14T11:49:22;5.95;;;3.45;;
70312;SDS011;57723;51.698;5.344;2023-05-14T11:51:47;5.07;;;3.28;;
70312;SDS011;57723;51.698;5.344;2023-05-14T11:54:13;4.43;;;3.10;;
70312;SDS011;57723;51.698;5.344;2023-05-14T11:56:38;6.20;;;3.73;;
70312;SDS011;57723;51.698;5.344;2023-05-14T11:59:03;5.40;;;3.30;;
70312;SDS011;57723;51.698;5.344;2023-05-14T12:01:29;5.63;;;3.23;;
70312;SDS011;57723;51.698;5.344;2023-05-14T12:03:59;6.40;;;3.15;;
70312;SDS011;57723;51.698;5.344;2023-05-14T12:06:29;5.60;;;3.60;;
70312;SDS011;57723;51.698;5.344;2023-05-14T12:08:55;4.85;;;3.45;;
70312;SDS011;57723;51.698;5.344;2023-05-14T12:11:20;6.53;;;3.40;;
70312;SDS011;57723;51.698;5.344;2023-05-14T12:13:45;5.50;;;3.37;;
70312;SDS011;57723;51.698;5.344;2023-05-14T12:16:11;5.97;;;3.30;;
70312;SDS011;57723;51.698;5.344;2023-05-14T12:18:36;6.00;;;3.33;;
70312;SDS011;57723;51.698;5.344;2023-05-14T12:21:02;7.07;;;3.40;;
70312;SDS011;57723;51.698;5.344;2023-05-14T12:23:28;5.88;;;3.22;;
70312;SDS011;57723;51.698;5.344;2023-05-14T12:25:54;4.72;;;3.00;;
70312;SDS011;57723;51.698;5.344;2023-05-14T12:28:21;4.40;;;3.27;;
70312;SDS011;57723;51.698;5.344;2023-05-14T12:30:47;6.35;;;3.30;;
70312;SDS011;57723;51.698;5.344;2023-05-14T12:33:13;5.05;;;3.03;;
70312;SDS011;57723;51.698;5.344;2023-05-14T12:35:38;5.53;;;3.00;;
70312;SDS011;57723;51.698;5.344;2023-05-14T12:38:04;4.93;;;3.03;;
70312;SDS011;57723;51.698;5.344;2023-05-14T12:40:30;4.30;;;2.92;;
70312;SDS011;57723;51.698;5.344;2023-05-14T12:42:55;4.50;;;3.13;;
70312;SDS011;57723;51.698;5.344;2023-05-14T12:45:21;6.17;;;3.27;;
70312;SDS011;57723;51.698;5.344;2023-05-14T12:47:46;4.97;;;3.30;;
70312;SDS011;57723;51.698;5.344;2023-05-14T12:50:12;6.50;;;3.40;;
70312;SDS011;57723;51.698;5.344;2023-05-14T12:52:37;5.43;;;3.47;;
70312;SDS011;57723;51.698;5.344;2023-05-14T12:55:03;6.43;;;3.60;;
70312;SDS011;57723;51.698;5.344;2023-05-14T12:57:29;4.90;;;3.03;;
70312;SDS011;57723;51.698;5.344;2023-05-14T12:59:55;5.03;;;3.00;;
70312;SDS011;57723;51.698;5.344;2023-05-14T13:02:20;6.50;;;3.43;;
70312;SDS011;57723;51.698;5.344;2023-05-14T13:04:46;5.38;;;3.30;;
70312;SDS011;57723;51.698;5.344;2023-05-14T13:07:11;7.07;;;3.47;;
70312;SDS011;57723;51.698;5.344;2023-05-14T13:09:36;5.33;;;3.10;;
70312;SDS011;57723;51.698;5.344;2023-05-14T13:12:02;5.47;;;3.60;;
70312;SDS011;57723;51.698;5.344;2023-05-14T13:14:27;5.73;;;3.30;;
70312;SDS011;57723;51.698;5.344;2023-05-14T13:16:52;7.70;;;3.60;;
70312;SDS011;57723;51.698;5.344;2023-05-14T13:19:18;5.80;;;3.27;;
70312;SDS011;57723;51.698;5.344;2023-05-14T13:21:43;5.00;;;3.10;;
70312;SDS011;57723;51.698;5.344;2023-05-14T13:24:08;6.23;;;3.40;;
70312;SDS011;57723;51.698;5.344;2023-05-14T13:26:34;6.53;;;3.60;;
70312;SDS011;57723;51.698;5.344;2023-05-14T13:29:00;4.88;;;3.22;;
70312;SDS011;57723;51.698;5.344;2023-05-14T13:31:27;8.10;;;3.10;;
70312;SDS011;57723;51.698;5.344;2023-05-14T13:33:53;5.60;;;3.30;;
70312;SDS011;57723;51.698;5.344;2023-05-14T13:36:18;4.50;;;2.97;;
70312;SDS011;57723;51.698;5.344;2023-05-14T13:38:43;4.57;;;3.00;;
70312;SDS011;57723;51.698;5.344;2023-05-14T13:41:10;4.90;;;3.00;;
70312;SDS011;57723;51.698;5.344;2023-05-14T13:43:35;4.27;;;2.70;;
70312;SDS011;57723;51.698;5.344;2023-05-14T13:46:01;5.33;;;2.80;;
70312;SDS011;57723;51.698;5.344;2023-05-14T13:48:27;4.70;;;3.10;;
70312;SDS011;57723;51.698;5.344;2023-05-14T13:50:52;3.80;;;2.73;;
70312;SDS011;57723;51.698;5.344;2023-05-14T13:53:18;5.67;;;2.97;;
70312;SDS011;57723;51.698;5.344;2023-05-14T13:55:43;6.25;;;3.08;;
70312;SDS011;57723;51.698;5.344;2023-05-14T13:58:09;7.90;;;3.03;;
70312;SDS011;57723;51.698;5.344;2023-05-14T14:00:34;5.22;;;3.00;;
70312;SDS011;57723;51.698;5.344;2023-05-14T14:03:00;4.47;;;2.97;;
70312;SDS011;57723;51.698;5.344;2023-05-14T14:05:25;5.40;;;2.73;;
70312;SDS011;57723;51.698;5.344;2023-05-14T14:07:53;6.20;;;2.97;;
70312;SDS011;57723;51.698;5.344;2023-05-14T14:10:18;5.63;;;2.80;;
70312;SDS011;57723;51.698;5.344;2023-05-14T14:12:43;5.57;;;2.87;;
70312;SDS011;57723;51.698;5.344;2023-05-14T14:15:09;6.30;;;2.60;;
70312;SDS011;57723;51.698;5.344;2023-05-14T14:17:34;4.18;;;2.60;;
70312;SDS011;57723;51.698;5.344;2023-05-14T14:20:00;5.15;;;2.90;;
70312;SDS011;57723;51.698;5.344;2023-05-14T14:22:26;10.03;;;3.20;;
70312;SDS011;57723;51.698;5.344;2023-05-14T14:24:53;6.87;;;2.97;;
70312;SDS011;57723;51.698;5.344;2023-05-14T14:27:18;6.65;;;2.80;;
70312;SDS011;57723;51.698;5.344;2023-05-14T14:29:44;6.57;;;3.00;;
70312;SDS011;57723;51.698;5.344;2023-05-14T14:32:09;5.03;;;2.47;;
70312;SDS011;57723;51.698;5.344;2023-05-14T14:34:35;4.53;;;2.60;;
70312;SDS011;57723;51.698;5.344;2023-05-14T14:37:00;4.83;;;3.00;;
70312;SDS011;57723;51.698;5.344;2023-05-14T14:39:25;4.23;;;2.73;;
70312;SDS011;57723;51.698;5.344;2023-05-14T14:41:51;5.37;;;2.80;;
70312;SDS011;57723;51.698;5.344;2023-05-14T14:44:16;5.40;;;2.67;;
70312;SDS011;57723;51.698;5.344;2023-05-14T14:46:41;5.30;;;2.90;;
70312;SDS011;57723;51.698;5.344;2023-05-14T14:49:07;5.40;;;2.63;;